createdAt,value
2022-10-13T00:01:17.101Z,12.87
2022-10-13T00:03:47.983Z,13.33
2022-10-13T00:06:19.206Z,13.93
2022-10-13T00:08:47.077Z,14.40
2022-10-13T00:11:17.567Z,14.47
2022-10-13T00:13:45.889Z,15.50
2022-10-13T00:16:15.615Z,15.33
2022-10-13T00:18:43.628Z,19.10
2022-10-13T00:21:17.907Z,16.60
2022-10-13T00:23:46.051Z,17.80
2022-10-13T00:26:15.874Z,18.30
2022-10-13T00:28:47.291Z,18.67
2022-10-13T00:31:25.823Z,25.03
2022-10-13T00:33:54.086Z,20.27
2022-10-13T00:36:23.851Z,22.27
2022-10-13T00:38:52.559Z,20.37
2022-10-13T00:41:20.981Z,21.03
2022-10-13T00:43:55.894Z,20.47
2022-10-13T00:46:24.930Z,20.20
2022-10-13T00:48:54.178Z,20.50
2022-10-13T00:51:28.586Z,18.27
2022-10-13T00:53:57.558Z,17.00
2022-10-13T00:56:27.849Z,15.27
2022-10-13T00:58:57.161Z,16.00
2022-10-13T01:01:25.446Z,15.83
2022-10-13T01:03:53.443Z,16.23
2022-10-13T01:06:23.719Z,17.67
2022-10-13T01:08:52.026Z,17.37
2022-10-13T01:11:57.673Z,17.83
2022-10-13T01:14:35.700Z,17.73
2022-10-13T01:17:35.454Z,19.73
2022-10-13T01:20:30.696Z,22.03
2022-10-13T01:23:17.725Z,20.90
2022-10-13T01:26:16.266Z,20.03
2022-10-13T01:29:02.325Z,20.03
2022-10-13T01:31:43.088Z,20.43
2022-10-13T01:34:32.337Z,18.60
2022-10-13T01:37:19.422Z,19.80
2022-10-13T01:40:26.045Z,20.53
2022-10-13T01:43:04.914Z,20.47
2022-10-13T01:45:50.824Z,20.37
2022-10-13T01:48:20.147Z,19.80
2022-10-13T01:50:49.212Z,20.30
2022-10-13T01:53:18.746Z,20.30
2022-10-13T01:55:53.946Z,20.43
2022-10-13T01:58:22.980Z,20.10
2022-10-13T02:01:00.852Z,21.30
2022-10-13T02:03:46.007Z,19.63
2022-10-13T02:06:26.563Z,20.50
2022-10-13T02:09:10.621Z,20.83
2022-10-13T02:11:42.335Z,20.80
2022-10-13T02:14:16.154Z,21.93
2022-10-13T02:16:46.464Z,22.37
2022-10-13T02:19:17.716Z,23.77
2022-10-13T02:21:45.723Z,23.27
2022-10-13T02:24:14.383Z,24.53
2022-10-13T02:26:43.210Z,22.57
2022-10-13T02:29:13.729Z,21.53
2022-10-13T02:31:42.523Z,23.63
2022-10-13T02:34:10.933Z,25.07
2022-10-13T02:36:39.475Z,24.80
2022-10-13T02:39:12.062Z,22.77
2022-10-13T02:41:39.726Z,23.30
2022-10-13T02:44:07.090Z,23.97
2022-10-13T02:46:35.577Z,23.17
2022-10-13T02:49:03.392Z,23.80
2022-10-13T02:51:32.445Z,25.67
2022-10-13T02:54:01.508Z,25.77
2022-10-13T02:56:28.771Z,31.90
2022-10-13T02:58:56.088Z,28.77
2022-10-13T03:01:23.907Z,33.00
2022-10-13T03:03:51.211Z,30.33
2022-10-13T03:06:18.536Z,30.20
2022-10-13T03:08:45.994Z,29.37
2022-10-13T03:11:13.246Z,27.43
2022-10-13T03:13:40.634Z,24.77
2022-10-13T03:16:08.313Z,23.90
2022-10-13T03:18:35.926Z,24.40
2022-10-13T03:21:05.966Z,25.10
2022-10-13T03:23:33.668Z,25.90
2022-10-13T03:26:01.087Z,24.33
2022-10-13T03:28:29.082Z,27.73
2022-10-13T03:31:05.387Z,25.93
2022-10-13T03:33:32.757Z,25.90
2022-10-13T03:36:02.173Z,25.60
2022-10-13T03:38:31.374Z,28.17
2022-10-13T03:40:58.730Z,28.63
2022-10-13T03:43:26.279Z,25.13
2022-10-13T03:46:01.209Z,24.50
2022-10-13T03:48:29.107Z,28.67
2022-10-13T03:50:56.643Z,34.53
2022-10-13T03:53:24.616Z,36.57
2022-10-13T03:55:53.778Z,29.07
2022-10-13T03:58:22.505Z,36.00
2022-10-13T04:00:50.405Z,38.67
2022-10-13T04:03:17.766Z,41.43
2022-10-13T04:05:45.181Z,45.67
2022-10-13T04:08:12.769Z,40.77
2022-10-13T04:10:40.119Z,38.47
2022-10-13T04:13:08.380Z,41.13
2022-10-13T04:15:40.039Z,37.13
2022-10-13T04:18:09.010Z,36.63
2022-10-13T04:20:39.219Z,33.13
2022-10-13T04:23:07.342Z,26.73
2022-10-13T04:25:39.370Z,26.47
2022-10-13T04:28:07.986Z,26.17
2022-10-13T04:30:37.040Z,23.20
2022-10-13T04:33:04.946Z,25.80
2022-10-13T04:35:32.397Z,23.50
2022-10-13T04:37:59.739Z,25.43
2022-10-13T04:40:28.701Z,23.63
2022-10-13T04:42:56.100Z,30.50
2022-10-13T04:45:23.460Z,39.43
2022-10-13T04:47:51.306Z,33.97
2022-10-13T04:50:19.371Z,32.97
2022-10-13T04:52:46.747Z,31.33
2022-10-13T04:55:13.995Z,34.00
2022-10-13T04:57:41.323Z,31.20
2022-10-13T05:00:09.376Z,30.53
2022-10-13T05:02:37.487Z,29.77
2022-10-13T05:05:05.714Z,28.03
2022-10-13T05:07:33.343Z,27.47
2022-10-13T05:10:00.737Z,25.60
2022-10-13T05:12:28.225Z,27.40
2022-10-13T05:14:55.508Z,27.13
2022-10-13T05:17:22.921Z,25.63
2022-10-13T05:19:50.488Z,27.20
2022-10-13T05:22:18.081Z,26.77
2022-10-13T05:24:45.590Z,27.50
2022-10-13T05:27:14.303Z,28.33
2022-10-13T05:29:42.438Z,28.63
2022-10-13T05:32:09.841Z,28.43
2022-10-13T05:34:37.154Z,30.23
2022-10-13T05:37:05.275Z,30.37
2022-10-13T05:39:32.556Z,31.57
2022-10-13T05:41:59.865Z,34.60
2022-10-13T05:44:27.297Z,34.60
2022-10-13T05:46:54.733Z,43.43
2022-10-13T05:49:22.096Z,42.90
2022-10-13T05:51:55.928Z,42.17
2022-10-13T05:54:34.243Z,41.67
2022-10-13T05:57:26.631Z,41.60
2022-10-13T06:00:04.598Z,43.50
2022-10-13T06:02:43.672Z,39.20
2022-10-13T06:05:16.396Z,41.40
2022-10-13T06:07:45.501Z,42.40
2022-10-13T06:10:13.663Z,42.30
2022-10-13T06:12:41.113Z,43.93
2022-10-13T06:15:09.182Z,44.57
2022-10-13T06:17:40.611Z,44.03
2022-10-13T06:20:09.437Z,46.10
2022-10-13T06:22:37.712Z,43.73
2022-10-13T06:25:06.823Z,45.50
2022-10-13T06:27:34.984Z,44.50
2022-10-13T06:30:02.354Z,45.57
2022-10-13T06:32:30.080Z,45.77
2022-10-13T06:34:57.328Z,42.27
2022-10-13T06:37:27.268Z,40.03
2022-10-13T06:39:55.190Z,38.07
2022-10-13T06:42:22.956Z,39.17
2022-10-13T06:44:50.570Z,38.50
2022-10-13T06:47:18.059Z,39.00
2022-10-13T06:49:48.132Z,39.53
2022-10-13T06:52:15.820Z,38.97
2022-10-13T06:54:43.153Z,38.53
2022-10-13T06:57:10.441Z,40.10
2022-10-13T06:59:37.822Z,36.87
2022-10-13T07:02:05.221Z,35.80
2022-10-13T07:04:32.519Z,36.73
2022-10-13T07:07:00.729Z,35.70
2022-10-13T07:09:28.212Z,37.17
2022-10-13T07:11:55.627Z,39.40
2022-10-13T07:14:22.980Z,37.33
2022-10-13T07:16:50.284Z,38.77
2022-10-13T07:19:17.617Z,37.10
2022-10-13T07:21:44.918Z,37.47
2022-10-13T07:24:12.805Z,38.00
2022-10-13T07:26:40.293Z,36.47
2022-10-13T07:29:08.456Z,36.53
2022-10-13T07:31:35.876Z,39.77
2022-10-13T07:34:07.393Z,36.70
2022-10-13T07:36:35.881Z,35.50
2022-10-13T07:39:03.931Z,37.67
2022-10-13T07:41:31.209Z,37.87
2022-10-13T07:43:58.797Z,36.07
2022-10-13T07:46:26.594Z,35.17
2022-10-13T07:48:54.410Z,36.63
2022-10-13T07:51:23.458Z,35.57
2022-10-13T07:53:51.147Z,34.53
2022-10-13T07:56:18.869Z,34.57
2022-10-13T07:58:47.784Z,32.90
2022-10-13T08:01:16.228Z,32.27
2022-10-13T08:03:47.287Z,31.97
2022-10-13T08:06:18.041Z,30.93
2022-10-13T08:08:45.308Z,29.50
2022-10-13T08:11:16.656Z,30.10
2022-10-13T08:13:50.745Z,28.37
2022-10-13T08:16:18.656Z,29.07
2022-10-13T08:18:46.457Z,25.47
2022-10-13T08:24:06.811Z,24.77
2022-10-13T08:26:34.224Z,26.43
2022-10-13T08:29:21.917Z,25.27
2022-10-13T08:34:16.309Z,28.60
2022-10-13T08:36:44.290Z,22.47
2022-10-13T08:39:12.459Z,22.87
2022-10-13T08:41:44.539Z,22.27
2022-10-13T08:47:35.844Z,29.23
2022-10-13T08:50:11.328Z,20.20
2022-10-13T08:53:00.443Z,18.87
2022-10-13T08:55:41.524Z,18.83
2022-10-13T08:58:29.258Z,20.50
2022-10-13T09:01:17.471Z,17.57
2022-10-13T09:03:52.106Z,16.77
2022-10-13T09:06:31.851Z,17.37
2022-10-13T09:09:01.553Z,15.70
2022-10-13T09:11:35.360Z,15.17
2022-10-13T09:14:06.015Z,15.00
2022-10-13T09:16:44.786Z,14.07
2022-10-13T09:19:24.271Z,12.33
2022-10-13T09:21:54.756Z,12.43
2022-10-13T09:24:24.517Z,12.27
2022-10-13T09:27:05.137Z,11.80
2022-10-13T09:29:32.555Z,13.17
2022-10-13T09:32:19.082Z,13.33
2022-10-13T09:34:48.052Z,13.90
2022-10-13T09:37:24.841Z,13.60
2022-10-13T09:40:31.783Z,13.32
2022-10-13T09:43:02.253Z,16.73
2022-10-13T09:45:32.578Z,14.02
2022-10-13T09:48:06.467Z,12.30
2022-10-13T09:50:35.614Z,12.32
2022-10-13T09:53:25.628Z,12.32
2022-10-13T09:56:09.480Z,12.07
2022-10-13T09:58:50.396Z,12.32
2022-10-13T10:01:28.530Z,11.25
2022-10-13T10:03:57.717Z,12.07
2022-10-13T10:06:27.733Z,12.68
2022-10-13T10:09:10.354Z,11.60
2022-10-13T10:11:42.853Z,12.27
2022-10-13T10:14:36.434Z,11.18
2022-10-13T10:17:10.222Z,13.32
2022-10-13T10:19:56.454Z,19.70
2022-10-13T10:22:30.188Z,10.82
2022-10-13T10:25:19.491Z,10.85
2022-10-13T10:28:16.196Z,11.05
2022-10-13T10:31:13.060Z,10.85
2022-10-13T10:34:27.976Z,14.05
2022-10-13T10:37:30.294Z,14.35
2022-10-13T10:40:42.452Z,10.77
2022-10-13T10:43:41.639Z,11.77
2022-10-13T10:46:36.469Z,8.88
2022-10-13T10:49:30.998Z,9.52
2022-10-13T10:52:09.332Z,9.57
2022-10-13T10:54:54.666Z,10.32
2022-10-13T10:57:56.548Z,11.57
2022-10-13T11:03:07.729Z,10.30
2022-10-13T11:06:04.823Z,10.57
2022-10-13T11:08:43.002Z,10.02
2022-10-13T11:11:37.849Z,11.27
2022-10-13T11:14:08.349Z,9.80
2022-10-13T11:17:03.788Z,12.10
2022-10-13T11:19:39.089Z,10.27
2022-10-13T11:22:06.606Z,10.63
2022-10-13T11:24:42.946Z,10.27
2022-10-13T11:27:13.006Z,10.65
2022-10-13T11:29:56.302Z,11.50
2022-10-13T11:32:32.409Z,10.95
2022-10-13T11:35:08.206Z,10.98
2022-10-13T11:38:16.860Z,10.20
2022-10-13T11:41:19.132Z,11.10
2022-10-13T11:44:08.698Z,10.75
2022-10-13T11:46:59.973Z,11.63
2022-10-13T11:49:56.649Z,11.00
2022-10-13T11:52:35.783Z,10.88
2022-10-13T11:55:12.832Z,11.05
2022-10-13T11:57:40.595Z,10.10
2022-10-13T12:00:19.113Z,9.93
2022-10-13T12:02:53.942Z,9.60
2022-10-13T12:05:28.251Z,8.90
2022-10-13T12:08:01.299Z,10.63
2022-10-13T12:10:38.177Z,9.90
2022-10-13T12:13:05.962Z,9.63
2022-10-13T12:15:43.604Z,9.38
2022-10-13T12:18:27.505Z,9.32
2022-10-13T12:20:57.484Z,8.80
2022-10-13T12:23:26.345Z,9.38
2022-10-13T12:25:58.618Z,9.57
2022-10-13T12:28:29.480Z,9.63
2022-10-13T12:30:59.619Z,9.13
2022-10-13T12:33:31.089Z,9.25
2022-10-13T12:36:17.712Z,12.38
2022-10-13T12:38:49.899Z,9.27
2022-10-13T12:41:28.825Z,11.38
2022-10-13T12:43:59.935Z,10.55
2022-10-13T12:46:38.196Z,8.13
2022-10-13T12:49:32.533Z,8.77
2022-10-13T12:52:23.736Z,8.30
2022-10-13T12:54:55.015Z,9.18
2022-10-13T12:57:38.489Z,9.82
2022-10-13T13:00:19.110Z,9.73
2022-10-13T13:03:00.412Z,10.00
2022-10-13T13:05:32.788Z,9.70
2022-10-13T13:08:00.902Z,10.32
2022-10-13T13:10:29.144Z,9.90
2022-10-13T13:12:57.304Z,8.93
2022-10-13T13:15:37.992Z,9.48
2022-10-13T13:18:31.734Z,9.60
2022-10-13T13:20:59.872Z,9.82
2022-10-13T13:23:33.531Z,10.15
2022-10-13T13:26:05.168Z,9.02
2022-10-13T13:28:33.442Z,7.93
2022-10-13T13:31:01.153Z,8.05
2022-10-13T13:33:28.877Z,8.18
2022-10-13T13:35:57.015Z,6.95
2022-10-13T13:38:24.823Z,7.68
2022-10-13T13:40:52.546Z,7.97
2022-10-13T13:43:20.380Z,7.75
2022-10-13T13:45:48.360Z,7.65
2022-10-13T13:48:16.207Z,7.80
2022-10-13T13:50:44.095Z,7.68
2022-10-13T13:53:11.511Z,8.52
2022-10-13T13:55:39.588Z,8.65
2022-10-13T13:58:07.418Z,8.30
2022-10-13T14:00:35.126Z,8.15
2022-10-13T14:03:02.889Z,8.75
2022-10-13T14:05:30.534Z,7.97
2022-10-13T14:07:59.351Z,9.07
2022-10-13T14:10:27.560Z,10.02
2022-10-13T14:12:55.286Z,10.13
2022-10-13T14:15:28.755Z,10.80
2022-10-13T14:17:57.246Z,11.52
2022-10-13T14:20:25.091Z,10.80
2022-10-13T14:22:54.791Z,11.07
2022-10-13T14:25:22.668Z,10.57
2022-10-13T14:27:52.106Z,12.27
2022-10-13T14:30:19.742Z,26.20
2022-10-13T14:32:47.103Z,17.00
2022-10-13T14:35:14.557Z,12.32
2022-10-13T14:37:42.015Z,14.32
2022-10-13T14:40:10.097Z,11.45
2022-10-13T14:42:39.740Z,10.77
2022-10-13T14:45:07.763Z,13.30
2022-10-13T14:47:35.534Z,13.07
2022-10-13T14:50:03.404Z,13.32
2022-10-13T14:52:30.909Z,14.82
2022-10-13T14:54:58.198Z,21.13
2022-10-13T14:57:25.856Z,20.42
2022-10-13T14:59:55.751Z,18.80
2022-10-13T15:02:25.686Z,18.08
2022-10-13T15:04:53.429Z,16.73
2022-10-13T15:07:21.102Z,15.20
2022-10-13T15:12:37.050Z,14.55
2022-10-13T15:15:04.786Z,13.73
2022-10-13T15:17:33.716Z,13.13
2022-10-13T15:20:01.050Z,13.13
2022-10-13T15:22:28.479Z,13.25
2022-10-13T15:24:56.318Z,13.38
2022-10-13T15:27:24.320Z,13.25
2022-10-13T15:29:51.675Z,11.90
2022-10-13T15:32:20.853Z,13.48
2022-10-13T15:34:48.615Z,12.27
2022-10-13T15:37:15.885Z,12.68
2022-10-13T15:39:43.373Z,13.43
2022-10-13T15:42:12.037Z,16.38
2022-10-13T15:45:08.272Z,31.00
2022-10-13T15:47:27.369Z,31.33
2022-10-13T15:49:54.967Z,33.53
2022-10-13T15:52:22.596Z,32.50
2022-10-13T15:54:51.818Z,29.83
2022-10-13T15:57:23.646Z,28.67
2022-10-13T15:59:51.207Z,26.73
2022-10-13T16:02:20.050Z,22.90
2022-10-13T16:04:47.741Z,19.80
2022-10-13T16:07:15.732Z,23.97
2022-10-13T16:09:43.842Z,18.90
2022-10-13T16:12:11.606Z,13.60
2022-10-13T16:14:39.018Z,13.90
2022-10-13T16:17:07.212Z,15.23
2022-10-13T16:19:34.765Z,15.63
2022-10-13T16:22:02.379Z,17.17
2022-10-13T16:24:30.382Z,15.97
2022-10-13T16:26:57.679Z,14.27
2022-10-13T16:29:25.039Z,12.60
2022-10-13T16:31:52.941Z,12.40
2022-10-13T16:34:23.030Z,13.03
2022-10-13T16:36:51.501Z,14.13
2022-10-13T16:39:19.042Z,15.87
2022-10-13T16:41:47.435Z,24.63
2022-10-13T16:44:15.541Z,25.27
2022-10-13T16:46:44.104Z,24.23
2022-10-13T16:49:13.003Z,24.93
2022-10-13T16:51:40.549Z,39.23
2022-10-13T16:54:09.109Z,36.87
2022-10-13T16:56:36.819Z,33.83
2022-10-13T16:59:06.419Z,18.27
2022-10-13T17:01:36.072Z,14.37
2022-10-13T17:04:05.963Z,11.67
2022-10-13T17:06:41.659Z,15.67
2022-10-13T17:09:10.358Z,20.70
2022-10-13T17:11:38.477Z,15.87
2022-10-13T17:14:06.535Z,19.53
2022-10-13T17:16:34.457Z,28.20
2022-10-13T17:19:02.009Z,50.73
2022-10-13T17:21:29.448Z,75.37
2022-10-13T17:23:57.958Z,75.53
2022-10-13T17:26:25.529Z,66.57
2022-10-13T17:28:53.967Z,52.13
2022-10-13T17:31:23.202Z,55.43
2022-10-13T17:33:51.670Z,53.63
2022-10-13T17:36:27.704Z,47.23
2022-10-13T17:38:56.874Z,44.17
2022-10-13T17:41:25.248Z,46.03
2022-10-13T17:43:52.732Z,48.07
2022-10-13T17:46:37.455Z,54.47
2022-10-13T17:49:11.437Z,49.57
2022-10-13T17:51:40.720Z,51.20
2022-10-13T17:54:14.488Z,48.27
2022-10-13T17:56:43.388Z,52.23
2022-10-13T17:59:11.058Z,52.47
2022-10-13T18:01:38.967Z,45.90
2022-10-13T18:04:08.796Z,43.00
2022-10-13T18:06:42.086Z,43.07
2022-10-13T18:09:15.352Z,47.43
2022-10-13T18:11:49.726Z,52.87
2022-10-13T18:14:19.707Z,55.40
2022-10-13T18:16:47.256Z,55.83
2022-10-13T18:19:14.982Z,59.90
2022-10-13T18:21:42.527Z,60.97
2022-10-13T18:24:13.881Z,64.73
2022-10-13T18:26:41.975Z,68.23
2022-10-13T18:29:11.479Z,69.30
2022-10-13T18:31:40.944Z,74.60
2022-10-13T18:34:12.362Z,58.50
2022-10-13T18:36:53.401Z,57.23
2022-10-13T18:39:25.449Z,67.37
2022-10-13T18:41:54.897Z,62.73
2022-10-13T18:44:24.008Z,48.43
2022-10-13T18:46:53.295Z,50.40
2022-10-13T18:49:33.678Z,32.60
2022-10-13T18:52:03.168Z,29.90
2022-10-13T18:54:31.163Z,31.83
2022-10-13T18:56:58.972Z,32.93
2022-10-13T18:59:26.319Z,32.13
2022-10-13T19:01:53.981Z,32.93
2022-10-13T19:04:22.533Z,41.67
2022-10-13T19:06:50.145Z,35.27
2022-10-13T19:09:17.753Z,31.67
2022-10-13T19:11:45.251Z,36.57
2022-10-13T19:14:13.894Z,31.30
2022-10-13T19:16:43.832Z,36.67
2022-10-13T19:19:12.141Z,35.17
2022-10-13T19:21:39.887Z,29.30
2022-10-13T19:24:08.371Z,23.67
2022-10-13T19:26:37.321Z,21.30
2022-10-13T19:29:12.993Z,19.83
2022-10-13T19:31:42.039Z,24.13
2022-10-13T19:34:11.345Z,27.37
2022-10-13T19:36:42.870Z,30.63
2022-10-13T19:39:19.940Z,33.80
2022-10-13T19:41:48.857Z,30.10
2022-10-13T19:44:18.154Z,35.13
2022-10-13T19:46:46.617Z,34.50
2022-10-13T19:49:17.066Z,33.87
2022-10-13T19:51:44.568Z,32.93
2022-10-13T19:54:12.722Z,31.07
2022-10-13T19:56:39.964Z,31.53
2022-10-13T19:59:07.398Z,24.60
2022-10-13T20:01:41.284Z,18.60
2022-10-13T20:04:09.511Z,20.87
2022-10-13T20:06:37.951Z,22.20
2022-10-13T20:09:06.014Z,23.03
2022-10-13T20:11:33.622Z,27.37
2022-10-13T20:14:01.030Z,22.97
2022-10-13T20:16:28.610Z,28.77
2022-10-13T20:19:00.128Z,27.53
2022-10-13T20:21:28.544Z,36.63
2022-10-13T20:23:57.109Z,38.60
2022-10-13T20:26:25.319Z,38.20
2022-10-13T20:28:53.802Z,33.53
2022-10-13T20:31:22.373Z,43.37
2022-10-13T20:33:55.192Z,33.73
2022-10-13T20:36:23.513Z,39.97
2022-10-13T20:38:51.139Z,33.17
2022-10-13T20:41:23.167Z,45.73
2022-10-13T20:43:51.425Z,34.13
2022-10-13T20:46:23.959Z,40.77
2022-10-13T20:49:09.776Z,45.30
2022-10-13T20:51:37.666Z,46.53
2022-10-13T20:54:05.842Z,48.30
2022-10-13T20:56:34.300Z,45.33
2022-10-13T20:59:06.603Z,41.40
2022-10-13T21:01:35.296Z,38.63
2022-10-13T21:04:02.844Z,38.43
2022-10-13T21:06:30.592Z,39.57
2022-10-13T21:08:57.854Z,26.10
2022-10-13T21:11:25.857Z,27.80
2022-10-13T21:13:53.781Z,28.77
2022-10-13T21:16:29.240Z,31.50
2022-10-13T21:18:58.046Z,26.50
2022-10-13T21:21:28.817Z,26.13
2022-10-13T21:24:01.325Z,27.47
2022-10-13T21:26:31.520Z,26.13
2022-10-13T21:28:59.815Z,25.07
2022-10-13T21:31:28.413Z,25.17
2022-10-13T21:33:56.257Z,25.37
2022-10-13T21:36:26.331Z,27.30
2022-10-13T21:38:59.958Z,27.40
2022-10-13T21:41:28.526Z,27.80
2022-10-13T21:43:56.160Z,26.63
2022-10-13T21:46:28.692Z,26.80
2022-10-13T21:48:58.823Z,26.27
2022-10-13T21:51:31.320Z,26.67
2022-10-13T21:54:13.506Z,26.07
2022-10-13T21:56:42.529Z,26.97
2022-10-13T21:59:12.639Z,27.27
2022-10-13T22:01:40.971Z,27.30
2022-10-13T22:04:09.901Z,29.40
2022-10-13T22:06:37.240Z,30.57
2022-10-13T22:09:05.964Z,34.43
2022-10-13T22:11:35.406Z,40.87
2022-10-13T22:14:03.105Z,33.83
2022-10-13T22:16:36.848Z,31.83
2022-10-13T22:19:04.292Z,42.43
2022-10-13T22:21:41.396Z,35.47
2022-10-13T22:24:12.131Z,38.10
2022-10-13T22:26:44.290Z,35.80
2022-10-13T22:29:16.871Z,35.07
2022-10-13T22:31:44.372Z,34.50
2022-10-13T22:34:13.311Z,32.63
2022-10-13T22:36:44.841Z,28.00
2022-10-13T22:39:13.331Z,30.67
2022-10-13T22:41:41.062Z,34.13
2022-10-13T22:44:08.910Z,33.07
2022-10-13T22:46:40.109Z,30.90
2022-10-13T22:49:08.476Z,33.30
2022-10-13T22:51:37.010Z,38.50
2022-10-13T22:54:05.174Z,50.53
2022-10-13T22:56:34.496Z,38.20
2022-10-13T22:59:08.932Z,42.77
2022-10-13T23:01:36.423Z,51.70
2022-10-13T23:04:04.552Z,44.30
2022-10-13T23:06:33.548Z,48.87
2022-10-13T23:09:02.588Z,44.07
2022-10-13T23:11:30.310Z,43.97
2022-10-13T23:13:57.616Z,41.60
2022-10-13T23:16:26.309Z,44.77
2022-10-13T23:18:54.484Z,45.23
2022-10-13T23:21:23.439Z,46.67
2022-10-13T23:23:59.565Z,78.60
2022-10-13T23:26:27.799Z,71.93
2022-10-13T23:28:59.020Z,57.37
2022-10-13T23:31:27.843Z,51.43
2022-10-13T23:33:55.197Z,52.37
2022-10-13T23:36:25.297Z,50.37
2022-10-13T23:39:00.847Z,48.67
2022-10-13T23:41:29.575Z,44.23
2022-10-13T23:43:57.024Z,48.23
2022-10-13T23:46:24.495Z,47.33
2022-10-13T23:48:51.948Z,49.13
2022-10-13T23:51:23.306Z,45.37
2022-10-13T23:53:51.012Z,43.53
2022-10-13T23:56:19.281Z,43.87
2022-10-13T23:58:47.221Z,41.53
